KGGWKOLF

Guest
Details From KGGW - Wokal Fld Glasgow Intl
To KOLF - L M Clayton
Flight Number -
Tags Generated
Created
Modified
Stats Distance 41 nm / 76 km
Max Altitude 0 ft / 0 m
Waypoints 2
Social Downloads 1
Likes 0
Share VATSIM

Download

Looking for another format? Having issues loading an existing format? Contact us
Advertisement - Login to hide

Notes

Generated

Route

KGGW KOLF

ID Type Via Altitude Latitude Longitude Leg Dist Tot Dist Heading (true) Name
O KGGW APT - 0 ft / 0 m 48.21284˚ -106.59991˚ - 0 nm - Wokal Fld Glasgow Intl
O KOLF APT - 0 ft / 0 m 48.09799˚ -105.58407˚ 41 nm 41 nm 99° / 100° -

Altitude Profile

Advertisement - Login to hide

KGGW

Details ICAO KGGW (GGW)
Name Wokal Fld Glasgow Intl
Region United States
Timezone America/Denver (UTC-7.0)
Stats Elevation 2,294 ft / 699 m (AMSL)
Location 48.212244° -106.602046°
Runways 2
Magnetic Variation 9.906° E

METAR

KGGW 151653Z AUTO 29004KT 10SM CLR 00/M05 A2968 RMK AO2 SLP079 T00001050 TSNO

Decode

TAF

TAF KGGW 151120Z 1512/1612 27005KT P6SM SCT130 FM160600 31010KT P6SM OVC025

Decode

Departure Runways

ID Width Length Bearing (true) Bearing (mag) Surface Threshold Offset Overrun Length
08 75 ft / 23 m 4,986 ft / 1,520 m 89.98° 80.07° Asphalt 0 ft / 0 m 1,345 ft / 410 m
12 100 ft / 30 m 4,995 ft / 1,522 m 134.08° 124.17° Asphalt 0 ft / 0 m 900 ft / 274 m
26 75 ft / 23 m 4,986 ft / 1,520 m 270.00° 260.09° Asphalt 0 ft / 0 m 0 ft / 0 m
30 100 ft / 30 m 4,995 ft / 1,522 m 314.09° 304.18° Asphalt 0 ft / 0 m 0 ft / 0 m

KOLF

Details ICAO KOLF (OLF)
Name L M Clayton
Region United States
Timezone America/Denver (UTC-7.0)
Stats Elevation 1,986 ft / 605 m (AMSL)
Location 48.094505° -105.575050°
Runways 1
Magnetic Variation 9.274° E

METAR

KOLF 151653Z AUTO 25009KT 10SM CLR 01/M04 A2968 RMK AO2 SLP078 T00061044

Decode

TAF

TAF KOLF 151120Z 1512/1612 25006KT P6SM BKN110 FM160600 29009KT P6SM OVC025

Decode

Destination Runways

ID Width Length Bearing (true) Bearing (mag) Surface Threshold Offset Overrun Length
11 100 ft / 30 m 5,080 ft / 1,548 m 120.05° 110.78° Asphalt 0 ft / 0 m 0 ft / 0 m
29 100 ft / 30 m 5,080 ft / 1,548 m 300.07° 290.80° Asphalt 0 ft / 0 m 0 ft / 0 m